Aeroporto :
LOGIN :

Iscrizione | Disclaimer

   EN    FR    IT 

 










Sommario :    VFR   VFR Marginale   IFR   IFR Intensivo   IFR Molto Intensivo
Visibilità : 
Base nubi : 
>= 8 km
>= 3000ft
5 / 8 km
1000 / 3000 ft
1500m / 5 km
500 / 1000 ft
800 / 1500m
200 / 500 ft
< 800m
< 200 ft
Simboli :   Temporali  Nebbia  Neve Forte  Precipitazioni Forti  Vento > 20 kt
SIGMETs :   Varie  Temporali  Ghiacco  Turbolenza  Onda orograficha  Ceneri Vulcaniche






- Altitudine del aeroporto : 1947 ft
- Codice IATA : OBF


EDMO - Oberpfaffenhofen

ULTIMO METAR :
  • 122050Z AUTO 15007KT 9999 // OVC061/// 03/02 Q1004

METARs OBSOLETI :
  • 122020Z AUTO 14005KT 9999 // OVC068/// 03/02 Q1004
  • 121950Z AUTO 14004KT 9999 // SCT075/// OVC090/// 03/02 Q1005
  • 121920Z 14005KT CAVOK 03/02 Q1005
  • 121850Z VRB02KT CAVOK 03/02 Q1005
  • 121820Z 15004KT CAVOK 03/02 Q1005

TAF TAF EDMO
Valido dal 12 a 18 ore il 13 a 03 ore UTC


121700Z 1218/1303 14005KT 9999 BKN050
TEMPO 1222/1303 2000 -SNRA OVC008



MetMap, La meteo Aeronautica in un colpo d'occhio ! - Copyright ORBIFLY Dicembre 2007 - Disclaimer

ORBIFLY MET'MAP TEAM :

Programmazione e sviluppo : Alexandra Zaïnal
Concezione e sviluppo : Baudouin d'Aumeries
Co-Programmazione e sviluppo : Marc-Olivier Méhu
Supporto tecnico e logistico : Manuel Goepfert
Aiuto per la traduzione : Arnaldo La Scala

Contatto : metmap@orbifly.com




FONTI E CREDITI :

   NOAA